Time;durP1;ratioP1;P1;durP2;ratioP2;P2;SDS_P1;SDS_P2;PMS_P1;PMS_P2;Temp;Humidity;BMP_temperature;BMP_pressure;BME280_temperature;BME280_humidity;BME280_pressure;Samples;Min_cycle;Max_cycle;Signal;HPM_P1;HPM_P2
2021/03/19 00:01:49;;;;;;;8.30;4.22;;;1.40;99.90;;;;;;5049017;28;20052;-73
2021/03/19 00:04:15;;;;;;;6.38;3.85;;;1.40;99.90;;;;;;5053273;28;20099;-73
2021/03/19 00:06:41;;;;;;;6.55;3.60;;;1.40;99.90;;;;;;5051483;28;20029;-73
2021/03/19 00:09:08;;;;;;;6.10;4.07;;;1.40;99.90;;;;;;5053074;28;20159;-73
2021/03/19 00:11:35;;;;;;;6.50;4.22;;;1.40;99.90;;;;;;5052675;28;20048;-73
2021/03/19 00:14:03;;;;;;;6.13;3.83;;;1.40;99.90;;;;;;5053285;28;20050;-73
2021/03/19 00:16:28;;;;;;;9.27;4.25;;;1.40;99.90;;;;;;5051442;28;20044;-73
2021/03/19 00:18:54;;;;;;;6.30;4.20;;;1.40;99.90;;;;;;5053166;28;20037;-73
2021/03/19 00:21:20;;;;;;;6.68;4.22;;;1.30;99.90;;;;;;5052433;28;20053;-73
2021/03/19 00:23:46;;;;;;;5.82;3.45;;;1.30;99.90;;;;;;5052799;28;20029;-73
2021/03/19 00:26:12;;;;;;;5.95;3.75;;;1.30;99.90;;;;;;5052608;28;20040;-73
2021/03/19 00:28:37;;;;;;;8.02;4.05;;;1.30;99.90;;;;;;5050818;28;20037;-73
2021/03/19 00:31:03;;;;;;;6.38;3.40;;;1.30;99.90;;;;;;5032252;28;20030;-73
2021/03/19 00:33:29;;;;;;;6.50;3.75;;;1.30;99.90;;;;;;5064926;28;20029;-73
2021/03/19 00:35:55;;;;;;;6.60;4.22;;;1.40;99.90;;;;;;5032839;28;20029;-73
2021/03/19 00:38:20;;;;;;;6.10;3.50;;;1.40;99.90;;;;;;5032404;28;20091;-73
2021/03/19 00:40:46;;;;;;;5.53;3.15;;;1.40;99.90;;;;;;5064055;28;20124;-73
2021/03/19 00:43:13;;;;;;;4.45;3.05;;;1.40;99.90;;;;;;5030297;28;20038;-73
2021/03/19 00:45:39;;;;;;;5.35;3.20;;;1.40;99.90;;;;;;5032867;28;20095;-73
2021/03/19 00:48:05;;;;;;;5.47;2.78;;;1.40;99.90;;;;;;5032284;28;20026;-73
2021/03/19 00:50:37;;;;;;;5.95;2.75;;;1.40;99.90;;;;;;5031857;28;20037;-73
2021/03/19 00:53:04;;;;;;;5.28;3.38;;;1.40;99.90;;;;;;5032424;28;20139;-73
2021/03/19 00:55:30;;;;;;;4.88;2.90;;;1.40;99.90;;;;;;5032411;28;20041;-73
2021/03/19 00:57:56;;;;;;;3.97;2.63;;;1.30;99.90;;;;;;5064369;28;20437;-73
2021/03/19 01:00:24;;;;;;;5.78;3.58;;;1.30;99.90;;;;;;5032203;28;20032;-73
2021/03/19 01:02:50;;;;;;;5.63;3.65;;;1.40;99.90;;;;;;5044973;28;20044;-73
2021/03/19 01:05:19;;;;;;;6.72;3.88;;;1.40;99.90;;;;;;5052194;28;20033;-73
2021/03/19 01:07:45;;;;;;;7.20;3.47;;;1.40;99.90;;;;;;5050285;28;20036;-73
2021/03/19 01:10:14;;;;;;;5.53;3.05;;;1.30;99.90;;;;;;5051953;28;20407;-73
2021/03/19 01:12:40;;;;;;;5.35;3.17;;;1.30;99.90;;;;;;5051693;28;20122;-73
2021/03/19 01:15:07;;;;;;;5.85;3.58;;;1.30;99.90;;;;;;5052211;28;20036;-73
2021/03/19 01:17:33;;;;;;;8.88;5.13;;;1.20;99.90;;;;;;5051428;28;20025;-73
2021/03/19 01:20:00;;;;;;;9.45;5.30;;;1.20;99.90;;;;;;5051716;28;20395;-73
2021/03/19 01:22:28;;;;;;;10.63;5.63;;;1.20;99.90;;;;;;5049931;28;20076;-73
2021/03/19 01:24:54;;;;;;;9.15;5.32;;;1.20;99.90;;;;;;5050732;28;20033;-73
2021/03/19 01:27:19;;;;;;;10.73;5.63;;;1.20;99.90;;;;;;5051448;28;20044;-73
2021/03/19 01:29:45;;;;;;;11.25;5.88;;;1.20;99.90;;;;;;5050439;28;20033;-73
2021/03/19 01:32:11;;;;;;;9.60;5.47;;;1.20;99.90;;;;;;5049862;28;20037;-73
2021/03/19 01:34:37;;;;;;;9.45;5.47;;;1.10;99.90;;;;;;5051896;28;20476;-73
2021/03/19 01:37:03;;;;;;;6.38;4.10;;;1.10;99.90;;;;;;5050753;28;20025;-73
2021/03/19 01:39:29;;;;;;;6.00;3.63;;;1.10;99.90;;;;;;5051583;28;20037;-73
2021/03/19 01:41:57;;;;;;;10.07;4.78;;;1.10;99.90;;;;;;5048634;28;20095;-73
2021/03/19 01:44:45;;;;;;;7.97;4.32;;;1.00;99.90;;;;;;5051577;28;20041;-73
2021/03/19 01:47:48;;;;;;;7.05;4.35;;;1.00;99.90;;;;;;5051231;28;20033;-73
2021/03/19 01:50:51;;;;;;;7.15;3.90;;;1.00;99.90;;;;;;5051049;28;20043;-73
2021/03/19 01:54:14;;;;;;;9.40;5.00;;;1.00;99.90;;;;;;5051075;28;20041;-73
2021/03/19 01:57:17;;;;;;;6.68;4.03;;;1.00;99.90;;;;;;5028394;28;20030;-73
2021/03/19 02:00:20;;;;;;;7.60;4.15;;;1.00;99.90;;;;;;5009178;28;20044;-73
2021/03/19 02:03:23;;;;;;;6.63;4.15;;;1.00;99.90;;;;;;5045772;28;20483;-73
2021/03/19 02:06:26;;;;;;;7.10;3.85;;;1.00;99.90;;;;;;5051040;28;20483;-73
2021/03/19 02:09:29;;;;;;;7.97;4.53;;;1.00;99.90;;;;;;5050853;28;20060;-74
2021/03/19 02:12:32;;;;;;;6.38;4.07;;;1.00;99.90;;;;;;5050521;28;20028;-74
2021/03/19 02:15:35;;;;;;;8.50;4.95;;;1.00;99.90;;;;;;5051056;28;20069;-73
2021/03/19 02:18:58;;;;;;;9.38;4.82;;;1.10;99.90;;;;;;5050364;28;20439;-73
2021/03/19 02:22:01;;;;;;;7.63;4.43;;;1.10;99.90;;;;;;5027518;28;20409;-73
2021/03/19 02:25:03;;;;;;;7.30;4.78;;;1.00;99.90;;;;;;5027634;28;20029;-74
2021/03/19 02:28:06;;;;;;;6.47;4.22;;;1.00;99.90;;;;;;5049448;28;20447;-73
2021/03/19 02:31:09;;;;;;;7.75;4.57;;;1.00;99.90;;;;;;5049694;28;20114;-73
2021/03/19 02:33:56;;;;;;;8.90;5.05;;;1.00;99.90;;;;;;5049475;28;20128;-73
2021/03/19 02:36:26;;;;;;;9.35;5.22;;;1.00;99.90;;;;;;5049424;28;20041;-73
2021/03/19 02:38:52;;;;;;;9.05;4.78;;;0.90;99.90;;;;;;5050448;28;20029;-73
2021/03/19 02:41:19;;;;;;;7.97;4.75;;;0.90;99.90;;;;;;5047658;28;20040;-73
2021/03/19 02:43:45;;;;;;;9.18;4.95;;;0.90;99.90;;;;;;5049359;28;20163;-73
2021/03/19 02:46:11;;;;;;;8.43;4.78;;;0.90;99.90;;;;;;5039509;28;20522;-73
2021/03/19 02:48:37;;;;;;;9.02;4.75;;;0.90;99.90;;;;;;5030471;28;20518;-73
2021/03/19 02:51:05;;;;;;;5.60;4.20;;;0.90;99.90;;;;;;5029643;28;20061;-73
2021/03/19 02:53:32;;;;;;;9.15;4.95;;;0.90;99.90;;;;;;5030217;28;20668;-73
2021/03/19 02:56:01;;;;;;;7.75;4.78;;;0.90;99.90;;;;;;5030531;28;20025;-73
2021/03/19 02:58:28;;;;;;;7.00;4.55;;;0.90;99.90;;;;;;5029859;28;20025;-74
2021/03/19 03:00:54;;;;;;;7.97;4.60;;;1.00;99.90;;;;;;5029762;28;20045;-73
2021/03/19 03:03:20;;;;;;;5.97;4.00;;;1.00;99.90;;;;;;5047440;28;20037;-74
2021/03/19 03:05:47;;;;;;;6.25;4.10;;;1.00;99.90;;;;;;5049946;28;20044;-73
2021/03/19 03:08:15;;;;;;;6.70;3.92;;;1.00;99.90;;;;;;5049615;28;20041;-73
2021/03/19 03:10:43;;;;;;;8.68;4.70;;;1.10;99.90;;;;;;5049243;28;20029;-73
2021/03/19 03:13:11;;;;;;;7.35;4.10;;;1.10;99.90;;;;;;5048970;28;20036;-74
2021/03/19 03:15:37;;;;;;;6.38;3.83;;;1.00;99.90;;;;;;5050091;28;20025;-74
2021/03/19 03:18:04;;;;;;;5.40;3.67;;;1.00;99.90;;;;;;5048521;28;20033;-73
2021/03/19 03:20:42;;;;;;;6.82;3.80;;;1.00;99.90;;;;;;5048947;28;20555;-73
2021/03/19 03:23:08;;;;;;;6.85;4.10;;;1.00;99.90;;;;;;5050179;28;20108;-74
2021/03/19 03:25:35;;;;;;;7.32;3.78;;;1.00;99.90;;;;;;5048762;28;20100;-74
2021/03/19 03:28:00;;;;;;;6.75;3.83;;;1.00;99.90;;;;;;5031741;28;20075;-73
2021/03/19 03:30:37;;;;;;;7.40;4.60;;;1.00;99.90;;;;;;5046700;28;20111;-74
2021/03/19 03:33:04;;;;;;;6.13;3.70;;;1.00;99.90;;;;;;5049774;28;20057;-73
2021/03/19 03:35:31;;;;;;;7.15;3.90;;;1.00;99.90;;;;;;5049943;28;20036;-74
2021/03/19 03:37:58;;;;;;;8.20;3.78;;;1.00;99.90;;;;;;5052816;28;20033;-73
2021/03/19 03:40:28;;;;;;;6.50;3.67;;;1.00;99.90;;;;;;5053664;28;20502;-73
2021/03/19 03:42:54;;;;;;;6.10;3.55;;;1.00;99.90;;;;;;5053532;28;20095;-73
2021/03/19 03:45:20;;;;;;;6.85;3.53;;;0.90;99.90;;;;;;5053813;28;20483;-73
2021/03/19 03:47:46;;;;;;;8.18;4.00;;;0.90;99.90;;;;;;5053276;28;20029;-74
2021/03/19 03:50:15;;;;;;;6.35;4.03;;;0.90;99.90;;;;;;5053375;28;20039;-73
2021/03/19 03:52:40;;;;;;;7.47;4.55;;;1.00;99.90;;;;;;5053051;28;20513;-73
2021/03/19 03:55:08;;;;;;;8.48;4.53;;;0.90;99.90;;;;;;5053641;28;20025;-73
2021/03/19 03:57:34;;;;;;;8.82;5.40;;;0.90;99.90;;;;;;5051822;28;20033;-74
2021/03/19 04:00:00;;;;;;;7.97;4.57;;;0.90;99.90;;;;;;5053504;28;20033;-73
2021/03/19 04:02:28;;;;;;;9.63;6.03;;;0.90;99.90;;;;;;5052746;28;20689;-74
2021/03/19 04:04:54;;;;;;;9.65;5.13;;;0.90;99.90;;;;;;5032952;28;20032;-73
2021/03/19 04:07:21;;;;;;;10.90;5.47;;;0.90;99.90;;;;;;5033081;28;20495;-73
2021/03/19 04:09:46;;;;;;;9.30;5.82;;;0.90;99.90;;;;;;5033297;28;20049;-73
2021/03/19 04:12:13;;;;;;;8.93;5.53;;;0.90;99.90;;;;;;5032901;28;20041;-73
2021/03/19 04:14:40;;;;;;;8.93;5.63;;;0.90;99.90;;;;;;5033179;28;20125;-74
2021/03/19 04:17:22;;;;;;;10.15;5.53;;;0.90;99.90;;;;;;5032826;28;20420;-73
2021/03/19 04:19:47;;;;;;;10.52;5.32;;;0.90;99.90;;;;;;5033364;28;20465;-73
2021/03/19 04:22:13;;;;;;;9.23;5.32;;;0.90;99.90;;;;;;5032701;28;20026;-73
2021/03/19 04:24:39;;;;;;;12.85;5.95;;;0.90;99.90;;;;;;5033063;28;20480;-73
2021/03/19 04:27:05;;;;;;;10.35;6.03;;;0.90;99.90;;;;;;5032439;28;20071;-73
2021/03/19 04:29:30;;;;;;;9.23;5.53;;;0.90;99.90;;;;;;5032834;28;20388;-74
2021/03/19 04:31:56;;;;;;;10.57;5.57;;;0.90;99.90;;;;;;5032568;28;20028;-73
2021/03/19 04:34:22;;;;;;;10.25;5.35;;;0.90;99.90;;;;;;5032906;28;20037;-73
2021/03/19 04:36:51;;;;;;;10.30;5.25;;;0.90;99.90;;;;;;5032364;28;20109;-73
2021/03/19 04:39:27;;;;;;;10.15;5.25;;;0.90;99.90;;;;;;5032779;28;20025;-73
2021/03/19 04:41:57;;;;;;;8.70;5.03;;;1.00;99.90;;;;;;5032183;28;20588;-74
2021/03/19 04:44:24;;;;;;;9.18;5.38;;;0.90;99.90;;;;;;5064991;28;20030;-73
2021/03/19 04:46:51;;;;;;;8.57;4.95;;;1.00;99.90;;;;;;5031812;28;20116;-73
2021/03/19 04:49:18;;;;;;;11.13;5.70;;;0.90;99.90;;;;;;5032376;28;20694;-73
2021/03/19 04:51:43;;;;;;;9.63;5.20;;;1.00;99.90;;;;;;5031939;28;20048;-73
2021/03/19 04:54:10;;;;;;;11.35;5.53;;;1.00;99.90;;;;;;5032429;28;20400;-73
2021/03/19 04:56:35;;;;;;;9.60;4.68;;;1.00;99.90;;;;;;5032012;28;20044;-74
2021/03/19 04:59:01;;;;;;;8.27;4.57;;;1.00;99.90;;;;;;5064536;28;20033;-73
2021/03/19 05:01:27;;;;;;;7.13;4.45;;;0.90;99.90;;;;;;5065658;28;20043;-73
2021/03/19 05:03:53;;;;;;;9.43;5.22;;;0.90;99.90;;;;;;5052012;28;20194;-73
2021/03/19 05:06:19;;;;;;;9.32;4.60;;;0.90;99.90;;;;;;5051815;28;20547;-73
2021/03/19 05:08:46;;;;;;;8.27;4.70;;;0.90;99.90;;;;;;5052009;28;20037;-74
2021/03/19 05:11:13;;;;;;;7.85;4.38;;;0.90;99.90;;;;;;5051318;28;20044;-73
2021/03/19 05:13:40;;;;;;;8.52;4.18;;;0.90;99.90;;;;;;5052275;28;20025;-73
2021/03/19 05:16:06;;;;;;;7.88;4.88;;;0.80;99.90;;;;;;5046957;28;20029;-73
2021/03/19 05:18:32;;;;;;;8.30;4.32;;;0.80;99.90;;;;;;5047522;28;20017;-74
2021/03/19 05:20:57;;;;;;;9.65;4.68;;;0.80;99.90;;;;;;5051093;28;20044;-73
2021/03/19 05:23:27;;;;;;;7.78;4.38;;;0.80;99.90;;;;;;5084116;28;20033;-73
2021/03/19 05:25:53;;;;;;;6.65;3.90;;;0.80;99.90;;;;;;5052062;28;20101;-73
2021/03/19 05:28:19;;;;;;;6.55;4.15;;;0.80;99.90;;;;;;5050152;28;20487;-73
2021/03/19 05:30:46;;;;;;;8.68;4.65;;;0.80;99.90;;;;;;5051233;28;20396;-73
2021/03/19 05:33:12;;;;;;;8.10;4.03;;;0.80;99.90;;;;;;5051731;28;20033;-73
2021/03/19 05:35:38;;;;;;;7.40;4.35;;;0.80;99.90;;;;;;5051855;28;20036;-73
2021/03/19 05:38:05;;;;;;;7.80;4.43;;;0.70;99.90;;;;;;5051132;28;20021;-73
2021/03/19 05:40:39;;;;;;;8.00;4.28;;;0.80;99.90;;;;;;5050934;28;20063;-73
2021/03/19 05:43:21;;;;;;;6.97;4.00;;;0.80;99.90;;;;;;5051662;28;20035;-73
2021/03/19 05:46:03;;;;;;;7.43;4.43;;;0.80;99.90;;;;;;5051629;28;20024;-73
2021/03/19 05:48:38;;;;;;;7.22;4.18;;;0.80;99.90;;;;;;5050897;28;20033;-73
2021/03/19 05:51:05;;;;;;;8.80;4.30;;;0.80;99.90;;;;;;5050738;28;20032;-73
2021/03/19 05:53:42;;;;;;;8.88;4.80;;;0.90;99.90;;;;;;5051347;28;20531;-73
2021/03/19 05:56:17;;;;;;;7.45;4.00;;;0.80;99.90;;;;;;5046402;28;20066;-73
2021/03/19 05:58:44;;;;;;;6.75;3.45;;;0.80;99.90;;;;;;5049183;28;20498;-73
2021/03/19 06:01:10;;;;;;;7.47;4.47;;;0.80;99.90;;;;;;5048463;28;20519;-73
2021/03/19 06:03:36;;;;;;;6.25;3.83;;;0.80;99.90;;;;;;5051029;28;20057;-73
2021/03/19 06:06:05;;;;;;;8.40;4.70;;;0.90;99.90;;;;;;5051241;28;20033;-73
2021/03/19 06:08:40;;;;;;;7.03;4.07;;;0.80;99.90;;;;;;5050789;28;20040;-73
2021/03/19 06:11:10;;;;;;;7.10;4.15;;;0.90;99.90;;;;;;5049645;28;20111;-73
2021/03/19 06:13:54;;;;;;;6.13;3.70;;;0.90;99.90;;;;;;5051120;28;20033;-73
2021/03/19 06:16:29;;;;;;;8.05;4.35;;;0.90;99.90;;;;;;5050505;28;20086;-73
2021/03/19 06:18:57;;;;;;;8.32;4.53;;;0.90;99.90;;;;;;5050451;28;20434;-73
2021/03/19 06:21:27;;;;;;;6.25;3.78;;;0.90;99.90;;;;;;5050317;28;20593;-73
2021/03/19 06:24:25;;;;;;;7.20;4.10;;;0.90;99.90;;;;;;5032910;28;20102;-73
2021/03/19 06:27:09;;;;;;;7.95;4.50;;;1.00;99.90;;;;;;5050458;28;20059;-73
2021/03/19 06:29:49;;;;;;;6.50;4.32;;;1.10;99.90;;;;;;5050770;28;20446;-73
2021/03/19 06:32:28;;;;;;;5.25;3.67;;;1.20;99.90;;;;;;5044884;28;20024;-73
2021/03/19 06:35:10;;;;;;;7.80;4.20;;;1.20;99.90;;;;;;5050531;28;20388;-73
2021/03/19 06:37:42;;;;;;;7.93;4.05;;;1.30;99.90;;;;;;5043934;28;20078;-73
2021/03/19 06:40:28;;;;;;;6.50;3.78;;;1.40;99.90;;;;;;5050544;28;20033;-73
2021/03/19 06:42:53;;;;;;;7.80;3.97;;;1.50;99.90;;;;;;5050588;28;20087;-73
2021/03/19 06:45:23;;;;;;;7.30;4.13;;;1.60;99.90;;;;;;5050489;28;20029;-73
2021/03/19 06:47:51;;;;;;;6.05;3.70;;;1.60;99.90;;;;;;5049830;28;20387;-73
2021/03/19 06:50:23;;;;;;;5.45;3.70;;;1.70;99.90;;;;;;5050370;28;20411;-73
2021/03/19 06:53:20;;;;;;;7.43;4.07;;;1.80;99.90;;;;;;5049959;28;20021;-73
2021/03/19 06:55:54;;;;;;;8.45;4.20;;;1.80;99.90;;;;;;5046233;28;20053;-73
2021/03/19 06:58:35;;;;;;;8.35;4.22;;;1.90;99.90;;;;;;5048791;28;20498;-73
2021/03/19 07:01:01;;;;;;;8.30;4.68;;;2.00;99.90;;;;;;5049475;28;20037;-73
2021/03/19 07:03:56;;;;;;;7.70;4.63;;;2.00;99.90;;;;;;5050097;28;20544;-73
2021/03/19 07:06:53;;;;;;;9.15;5.15;;;2.00;99.90;;;;;;5049810;28;20083;-73
2021/03/19 07:09:39;;;;;;;7.78;4.45;;;2.20;99.90;;;;;;5050055;28;20040;-73
2021/03/19 07:12:30;;;;;;;9.82;5.25;;;2.20;99.90;;;;;;5049258;28;20170;-73
2021/03/19 07:14:56;;;;;;;9.23;4.75;;;2.30;99.90;;;;;;5050245;28;20029;-73
2021/03/19 07:17:30;;;;;;;8.00;4.80;;;2.30;99.90;;;;;;5049516;28;20079;-73
2021/03/19 07:20:11;;;;;;;12.83;5.80;;;2.40;99.90;;;;;;5033974;28;20051;-73
2021/03/19 07:22:42;;;;;;;9.90;4.95;;;2.40;99.90;;;;;;5071951;28;20053;-73
2021/03/19 07:25:25;;;;;;;11.57;5.10;;;2.40;99.90;;;;;;5049799;28;20082;-73
2021/03/19 07:28:18;;;;;;;8.88;4.78;;;2.40;99.90;;;;;;5049546;28;20029;-73
2021/03/19 07:31:13;;;;;;;9.57;4.60;;;2.40;99.90;;;;;;5049253;28;20029;-72
2021/03/19 07:34:21;;;;;;;9.43;5.57;;;2.40;99.90;;;;;;5050287;28;20472;-72
2021/03/19 07:37:08;;;;;;;11.75;5.93;;;2.50;99.90;;;;;;5023357;28;20396;-73
2021/03/19 07:40:04;;;;;;;11.13;5.72;;;2.50;99.90;;;;;;5045323;28;20049;-73
2021/03/19 07:43:00;;;;;;;10.40;5.75;;;2.60;99.90;;;;;;5042790;28;20017;-73
2021/03/19 07:45:45;;;;;;;12.02;5.55;;;2.60;99.90;;;;;;5079143;28;20021;-73
2021/03/19 07:48:21;;;;;;;13.90;6.77;;;2.60;99.90;;;;;;5046403;28;20029;-73
2021/03/19 07:51:09;;;;;;;12.40;6.15;;;2.50;99.90;;;;;;5047222;28;20021;-73
2021/03/19 07:54:04;;;;;;;13.38;6.10;;;2.50;99.90;;;;;;5046857;28;20104;-73
2021/03/19 07:56:56;;;;;;;13.82;6.60;;;2.50;99.90;;;;;;5046234;28;20052;-73
2021/03/19 08:00:01;;;;;;;12.45;6.78;;;2.50;99.90;;;;;;5035363;28;20037;-73
2021/03/19 08:02:50;;;;;;;18.65;6.85;;;2.50;99.90;;;;;;5018805;28;20098;-73
2021/03/19 08:05:25;;;;;;;14.23;7.10;;;2.60;99.90;;;;;;5045238;28;20447;-73
2021/03/19 08:08:26;;;;;;;14.45;7.13;;;2.70;99.90;;;;;;5046194;28;20040;-73
2021/03/19 08:11:16;;;;;;;16.63;7.65;;;2.90;99.90;;;;;;5039757;28;20033;-73
2021/03/19 08:13:51;;;;;;;14.70;7.50;;;3.30;99.90;;;;;;5045779;28;20129;-73
2021/03/19 08:16:40;;;;;;;15.85;7.13;;;3.60;99.90;;;;;;5048038;28;20538;-73
2021/03/19 08:19:35;;;;;;;13.30;6.95;;;3.80;99.90;;;;;;5049571;28;20029;-74
2021/03/19 08:22:23;;;;;;;13.65;7.00;;;4.30;99.90;;;;;;5038884;28;20131;-74
2021/03/19 08:25:13;;;;;;;13.88;7.18;;;4.50;99.90;;;;;;5048912;28;20029;-75
2021/03/19 08:27:57;;;;;;;13.13;6.90;;;4.40;99.90;;;;;;5051275;28;20057;-75
2021/03/19 08:30:42;;;;;;;14.02;7.30;;;4.30;99.90;;;;;;5050122;28;20087;-74
2021/03/19 08:33:35;;;;;;;14.93;7.20;;;4.10;99.90;;;;;;5048400;28;20028;-74
2021/03/19 08:36:38;;;;;;;14.95;7.00;;;3.90;99.90;;;;;;5052612;28;20037;-74
2021/03/19 08:39:26;;;;;;;15.90;7.45;;;3.60;99.90;;;;;;5052284;28;20040;-74
2021/03/19 08:42:35;;;;;;;12.50;6.40;;;3.60;99.90;;;;;;5040773;28;20120;-75
2021/03/19 08:45:17;;;;;;;16.30;8.20;;;3.60;99.90;;;;;;5022525;28;20037;-75
2021/03/19 08:47:47;;;;;;;15.80;7.30;;;3.50;99.90;;;;;;5032436;28;20104;-74
2021/03/19 08:50:37;;;;;;;15.60;7.30;;;3.60;99.90;;;;;;5043329;28;20033;-74
2021/03/19 08:53:13;;;;;;;20.38;8.88;;;3.50;99.90;;;;;;5052392;28;20029;-74
2021/03/19 08:55:49;;;;;;;16.05;7.80;;;3.50;99.90;;;;;;5052591;28;20031;-74
2021/03/19 08:58:29;;;;;;;17.35;7.13;;;3.40;99.90;;;;;;5046352;28;20025;-74
2021/03/19 09:00:59;;;;;;;18.08;8.88;;;3.30;99.90;;;;;;5041632;28;20029;-74
2021/03/19 09:03:44;;;;;;;18.88;7.82;;;3.20;99.90;;;;;;5046983;28;20029;-74
2021/03/19 09:06:13;;;;;;;16.17;7.60;;;3.10;99.90;;;;;;5050456;28;20067;-74
2021/03/19 09:08:54;;;;;;;17.83;8.00;;;3.00;99.90;;;;;;5050592;28;20033;-74
2021/03/19 09:11:22;;;;;;;16.52;8.38;;;3.00;99.90;;;;;;5051678;28;20027;-74
2021/03/19 09:14:32;;;;;;;15.90;7.70;;;2.90;99.90;;;;;;5052623;28;20021;-74
2021/03/19 09:16:58;;;;;;;18.83;7.55;;;3.00;99.90;;;;;;5043835;28;20037;-74
2021/03/19 09:19:34;;;;;;;18.52;7.95;;;3.00;99.90;;;;;;5051131;28;20545;-74
2021/03/19 09:22:22;;;;;;;18.05;7.78;;;3.20;99.90;;;;;;5051606;28;20445;-74
2021/03/19 09:27:42;;;;;;;16.90;8.02;;;3.50;99.90;;;;;;5050644;28;20085;-75
2021/03/19 09:30:21;;;;;;;15.90;7.22;;;3.70;99.90;;;;;;5048687;28;20033;-73
2021/03/19 09:32:50;;;;;;;16.33;7.78;;;3.70;99.90;;;;;;5046684;28;20116;-73
2021/03/19 09:35:42;;;;;;;16.23;7.85;;;3.70;99.90;;;;;;5049017;28;20028;-74
2021/03/19 09:38:23;;;;;;;18.30;7.60;;;3.70;99.90;;;;;;5047243;28;20021;-74
2021/03/19 09:40:54;;;;;;;15.60;6.93;;;3.70;99.90;;;;;;5047586;28;20025;-74
2021/03/19 09:43:46;;;;;;;17.50;8.07;;;3.60;99.90;;;;;;5048279;28;20569;-74
2021/03/19 09:46:29;;;;;;;16.52;8.15;;;3.60;99.90;;;;;;5045305;28;20049;-74
2021/03/19 09:49:25;;;;;;;13.55;6.47;;;3.70;99.90;;;;;;5048823;28;20095;-75
2021/03/19 09:51:51;;;;;;;14.18;6.93;;;3.70;99.90;;;;;;5041826;28;20049;-74
2021/03/19 09:54:18;;;;;;;8.77;4.53;;;3.70;99.90;;;;;;5047480;28;20031;-74
2021/03/19 09:56:44;;;;;;;10.45;5.47;;;3.60;99.90;;;;;;5046595;28;20523;-76
2021/03/19 09:59:20;;;;;;;10.25;4.70;;;3.40;99.90;;;;;;5047637;28;20670;-75
2021/03/19 10:01:46;;;;;;;8.32;4.60;;;3.10;99.90;;;;;;5046731;28;20021;-73
2021/03/19 10:04:36;;;;;;;10.10;4.70;;;2.90;99.90;;;;;;5046883;28;20040;-74
2021/03/19 10:07:25;;;;;;;10.57;4.78;;;2.80;99.90;;;;;;5047015;28;20057;-74
2021/03/19 10:09:56;;;;;;;8.68;4.35;;;2.60;99.90;;;;;;5046595;28;20663;-74
2021/03/19 10:12:26;;;;;;;9.20;4.80;;;2.60;99.90;;;;;;5046868;28;20045;-75
2021/03/19 10:14:55;;;;;;;8.82;4.60;;;2.80;99.90;;;;;;5045578;28;20032;-75
2021/03/19 10:17:31;;;;;;;8.90;4.80;;;2.90;99.90;;;;;;5042774;28;20032;-74
2021/03/19 10:20:00;;;;;;;8.45;4.20;;;3.10;99.90;;;;;;5038274;28;20029;-75
2021/03/19 10:22:39;;;;;;;9.38;4.45;;;3.20;99.90;;;;;;5043523;28;20022;-74
2021/03/19 10:25:32;;;;;;;6.35;3.80;;;3.40;99.90;;;;;;5078093;28;20082;-74
2021/03/19 10:28:05;;;;;;;6.22;3.78;;;3.50;99.90;;;;;;5044047;28;20032;-74
2021/03/19 10:30:39;;;;;;;6.97;3.97;;;3.50;99.90;;;;;;5040712;28;20048;-74
2021/03/19 10:33:35;;;;;;;5.18;3.63;;;3.50;99.90;;;;;;5045895;28;20029;-74
2021/03/19 10:36:08;;;;;;;6.32;3.83;;;3.50;99.90;;;;;;5043893;28;20053;-75
2021/03/19 10:38:42;;;;;;;6.18;4.20;;;3.70;99.90;;;;;;5061653;28;20110;-74
2021/03/19 10:41:22;;;;;;;6.97;4.28;;;3.70;99.90;;;;;;5045798;28;20029;-74
2021/03/19 10:43:55;;;;;;;5.10;3.58;;;3.80;99.90;;;;;;5046680;28;20036;-74
2021/03/19 10:46:33;;;;;;;5.25;3.97;;;3.90;99.90;;;;;;5044903;28;20039;-75
2021/03/19 10:49:04;;;;;;;5.03;3.47;;;3.90;99.90;;;;;;5043127;28;20136;-74
2021/03/19 10:51:44;;;;;;;5.25;3.72;;;3.90;99.90;;;;;;5042727;28;20044;-74
2021/03/19 10:54:33;;;;;;;4.57;3.10;;;3.90;99.90;;;;;;5069412;28;20045;-74
2021/03/19 10:57:11;;;;;;;5.05;3.00;;;3.80;99.90;;;;;;5040342;28;20031;-73
2021/03/19 10:59:37;;;;;;;4.45;3.05;;;3.60;99.90;;;;;;5042782;28;20017;-74
2021/03/19 11:02:11;;;;;;;5.03;3.17;;;3.60;99.90;;;;;;5039347;28;20112;-74
2021/03/19 11:04:43;;;;;;;4.20;2.88;;;3.40;99.90;;;;;;5076671;28;20016;-74
2021/03/19 11:07:30;;;;;;;4.07;2.38;;;3.30;99.90;;;;;;5043152;28;20033;-74
2021/03/19 11:10:00;;;;;;;4.93;2.40;;;3.20;99.90;;;;;;5041774;28;20959;-74
2021/03/19 11:12:35;;;;;;;3.50;2.47;;;3.20;99.90;;;;;;5043758;28;20025;-74
2021/03/19 11:15:28;;;;;;;3.83;2.03;;;3.10;99.90;;;;;;5042848;28;20020;-74
2021/03/19 11:18:24;;;;;;;3.38;2.10;;;3.10;99.90;;;;;;5037097;28;20592;-74
2021/03/19 11:20:57;;;;;;;5.05;2.38;;;3.20;99.90;;;;;;5039802;28;20285;-74
2021/03/19 11:23:36;;;;;;;4.18;2.60;;;3.20;99.90;;;;;;5043412;28;20082;-74
2021/03/19 11:26:23;;;;;;;3.10;2.22;;;3.20;99.90;;;;;;5044788;28;20032;-73
2021/03/19 11:28:49;;;;;;;4.03;2.20;;;3.10;99.90;;;;;;5044062;28;20102;-74
2021/03/19 11:31:21;;;;;;;4.03;2.40;;;3.00;99.90;;;;;;5044502;28;20029;-74
2021/03/19 11:34:06;;;;;;;4.57;2.67;;;3.00;99.90;;;;;;5043714;28;20036;-74
2021/03/19 11:36:59;;;;;;;5.43;2.65;;;3.00;99.90;;;;;;5069767;28;20036;-75
2021/03/19 11:39:39;;;;;;;4.72;2.63;;;3.10;99.90;;;;;;5043082;28;20041;-74
2021/03/19 11:42:15;;;;;;;3.53;1.90;;;3.30;99.90;;;;;;5044857;28;20029;-74
2021/03/19 11:44:42;;;;;;;3.45;1.80;;;3.40;99.90;;;;;;5045760;28;20036;-74
2021/03/19 11:47:24;;;;;;;4.75;3.00;;;3.40;99.90;;;;;;5045535;28;20029;-74
2021/03/19 11:49:53;;;;;;;5.00;2.70;;;3.50;99.90;;;;;;5048550;28;20037;-74
2021/03/19 11:52:20;;;;;;;4.18;2.63;;;3.50;99.90;;;;;;5049006;28;20116;-73
2021/03/19 11:54:47;;;;;;;5.57;2.78;;;3.50;99.90;;;;;;5048233;28;20431;-74
2021/03/19 11:57:14;;;;;;;5.32;3.15;;;3.60;99.90;;;;;;5049442;28;20021;-73
2021/03/19 11:59:39;;;;;;;8.32;2.70;;;3.60;99.90;;;;;;5051594;28;20029;-74
2021/03/19 12:02:34;;;;;;;4.78;2.50;;;3.60;99.90;;;;;;5052667;28;20036;-73
2021/03/19 12:05:00;;;;;;;4.53;2.58;;;3.60;99.90;;;;;;5046284;28;20025;-74
2021/03/19 12:07:27;;;;;;;4.30;2.38;;;3.50;99.90;;;;;;5050516;28;20056;-74
2021/03/19 12:09:53;;;;;;;4.30;2.30;;;3.50;99.90;;;;;;5051982;28;20033;-74
2021/03/19 12:12:22;;;;;;;4.15;2.20;;;3.40;99.90;;;;;;5068098;28;20625;-74
2021/03/19 12:14:48;;;;;;;4.85;2.50;;;3.30;99.90;;;;;;5046729;28;20480;-74
2021/03/19 12:17:15;;;;;;;4.45;2.20;;;3.30;99.90;;;;;;5081771;28;20041;-74
2021/03/19 12:19:41;;;;;;;3.22;2.15;;;3.30;99.90;;;;;;5048549;28;20766;-74
2021/03/19 12:22:07;;;;;;;4.03;2.58;;;3.20;99.90;;;;;;5048388;28;20033;-74
2021/03/19 12:24:37;;;;;;;4.72;2.63;;;3.20;99.90;;;;;;5049771;28;20130;-74
2021/03/19 12:27:04;;;;;;;4.75;2.65;;;3.20;99.90;;;;;;5049242;28;20040;-74
2021/03/19 12:29:30;;;;;;;4.13;2.35;;;3.30;99.90;;;;;;5048942;28;20400;-74
2021/03/19 12:31:57;;;;;;;2.80;2.40;;;3.30;99.90;;;;;;5049261;28;20044;-74
2021/03/19 12:34:23;;;;;;;4.78;2.53;;;3.30;99.90;;;;;;5049535;28;20033;-74
2021/03/19 12:36:50;;;;;;;3.60;2.53;;;3.40;99.90;;;;;;5045171;28;20033;-73
2021/03/19 12:39:18;;;;;;;3.78;2.65;;;3.50;99.90;;;;;;5049650;28;20025;-74
2021/03/19 12:41:44;;;;;;;6.82;2.90;;;3.70;99.90;;;;;;5046172;28;20628;-73
2021/03/19 12:44:10;;;;;;;6.60;3.50;;;3.80;99.90;;;;;;5048000;28;20035;-74
2021/03/19 12:46:36;;;;;;;7.90;4.07;;;3.90;99.90;;;;;;5049130;28;20033;-74
2021/03/19 12:49:03;;;;;;;13.95;5.05;;;4.00;99.90;;;;;;5048769;28;20404;-74
2021/03/19 12:51:29;;;;;;;8.73;3.95;;;4.00;99.90;;;;;;5046149;28;20039;-73
2021/03/19 12:53:55;;;;;;;9.95;4.40;;;4.00;99.90;;;;;;5049241;28;20033;-74
2021/03/19 12:56:21;;;;;;;5.18;3.17;;;4.00;99.90;;;;;;5048078;28;20029;-74
2021/03/19 12:58:46;;;;;;;7.68;3.72;;;4.00;99.90;;;;;;5048670;28;20021;-74
2021/03/19 13:01:14;;;;;;;7.70;4.13;;;3.90;99.90;;;;;;5048296;28;20767;-73
2021/03/19 13:03:40;;;;;;;7.90;3.65;;;3.90;99.90;;;;;;5048360;28;20083;-74
2021/03/19 13:06:05;;;;;;;7.85;3.95;;;3.90;99.90;;;;;;5048458;28;20041;-74
2021/03/19 13:08:31;;;;;;;6.20;3.53;;;3.80;99.90;;;;;;5047684;28;20075;-75
2021/03/19 13:10:57;;;;;;;6.70;3.90;;;3.70;99.90;;;;;;5046250;28;20116;-75
2021/03/19 13:13:22;;;;;;;7.30;3.75;;;3.70;99.90;;;;;;5047369;28;20029;-74
2021/03/19 13:15:48;;;;;;;6.20;3.75;;;3.70;99.90;;;;;;5047641;28;20065;-73
2021/03/19 13:18:14;;;;;;;7.50;3.90;;;3.80;99.90;;;;;;5045776;28;20029;-74
2021/03/19 13:20:40;;;;;;;9.68;4.15;;;3.80;99.90;;;;;;5027727;28;20030;-74
2021/03/19 13:23:07;;;;;;;7.28;4.03;;;3.80;99.90;;;;;;5028224;28;20120;-74
2021/03/19 13:25:35;;;;;;;6.78;3.95;;;3.80;99.90;;;;;;5028797;28;20218;-74
2021/03/19 13:28:02;;;;;;;9.52;4.63;;;3.80;99.90;;;;;;5043367;28;20079;-74
2021/03/19 13:30:31;;;;;;;9.40;4.53;;;3.70;99.90;;;;;;5047408;28;20463;-74
2021/03/19 13:32:58;;;;;;;8.38;4.32;;;3.60;99.90;;;;;;5047183;28;20087;-73
2021/03/19 13:35:31;;;;;;;8.05;3.60;;;3.50;99.90;;;;;;5038559;28;20037;-74
2021/03/19 13:38:00;;;;;;;7.43;4.30;;;3.40;99.90;;;;;;5047488;28;20042;-73